Time;durP1;ratioP1;P1;durP2;ratioP2;P2;SDS_P1;SDS_P2;PMS_P1;PMS_P2;Temp;Humidity;BMP_temperature;BMP_pressure;BME280_temperature;BME280_humidity;BME280_pressure;Samples;Min_cycle;Max_cycle;Signal;HPM_P1;HPM_P2
2023/12/30 00:01:24;;;;;;;;;;;8.10;99.90;;;;;;6714245;88;20912;-82
2023/12/30 00:11:24;;;;;;;;;;;8.20;99.90;;;;;;6714364;88;20075;-84
2023/12/30 00:21:24;;;;;;;;;;;8.30;99.90;;;;;;6747033;87;20088;-83
2023/12/30 00:31:26;;;;;;;;;;;8.60;99.90;;;;;;6784817;87;20087;-84
2023/12/30 00:41:27;;;;;;;;;;;8.80;99.90;;;;;;6784642;87;20037;-83
2023/12/30 00:51:28;;;;;;;;;;;8.80;99.90;;;;;;6780842;87;20057;-83
2023/12/30 01:01:28;;;;;;;;;;;8.80;99.90;;;;;;6784810;87;20061;-83
2023/12/30 01:11:29;;;;;;;;;;;8.80;99.90;;;;;;6784589;87;20897;-83
2023/12/30 01:21:29;;;;;;;;;;;8.80;99.90;;;;;;6784978;87;20125;-83
2023/12/30 01:31:30;;;;;;;;;;;8.90;99.90;;;;;;6784692;87;20660;-85
2023/12/30 01:41:31;;;;;;;;;;;8.90;99.90;;;;;;6785191;87;20025;-84
2023/12/30 01:51:35;;;;;;;;;;;8.60;99.90;;;;;;6787213;87;20819;-83
2023/12/30 02:01:35;;;;;;;;;;;9.00;99.90;;;;;;6782575;87;20049;-83
2023/12/30 02:11:36;;;;;;;;;;;9.00;99.90;;;;;;6786441;87;20029;-82
2023/12/30 02:21:36;;;;;;;;;;;8.90;99.90;;;;;;6786959;87;20911;-84
2023/12/30 02:31:45;;;;;;;;;;;8.90;99.90;;;;;;6786709;87;20116;-85
2023/12/30 02:41:45;;;;;;;;;;;8.70;99.90;;;;;;6769687;88;20061;-86
2023/12/30 02:51:46;;;;;;;;;;;8.60;99.90;;;;;;6732659;88;20733;-86
2023/12/30 03:01:46;;;;;;;;;;;8.70;99.90;;;;;;6732986;88;20151;-85
2023/12/30 03:11:47;;;;;;;;;;;8.70;99.90;;;;;;6763044;88;20144;-85
2023/12/30 03:21:47;;;;;;;;;;;8.80;99.90;;;;;;6768991;88;20148;-85
2023/12/30 03:31:48;;;;;;;;;;;8.70;99.90;;;;;;6769255;88;20744;-85
2023/12/30 03:41:48;;;;;;;;;;;8.70;99.90;;;;;;6769129;88;20027;-85
2023/12/30 03:51:49;;;;;;;;;;;8.80;99.90;;;;;;6769295;88;20033;-86
2023/12/30 04:01:49;;;;;;;;;;;8.70;99.90;;;;;;6768908;88;20037;-86
2023/12/30 04:11:50;;;;;;;;;;;8.80;99.90;;;;;;6768366;88;20043;-84
2023/12/30 04:21:50;;;;;;;;;;;8.80;99.90;;;;;;6768972;88;20033;-85
2023/12/30 04:31:51;;;;;;;;;;;8.70;99.90;;;;;;6768588;88;20129;-86
2023/12/30 04:41:51;;;;;;;;;;;8.70;99.90;;;;;;6768732;88;20022;-85
2023/12/30 04:51:52;;;;;;;;;;;8.60;99.90;;;;;;6768336;88;20034;-84
2023/12/30 05:01:53;;;;;;;;;;;8.70;99.90;;;;;;6768225;88;20187;-85
2023/12/30 05:11:56;;;;;;;;;;;8.60;99.90;;;;;;6768054;88;20144;-84
2023/12/30 05:21:56;;;;;;;;;;;8.60;99.90;;;;;;6770472;88;20069;-84
2023/12/30 05:31:57;;;;;;;;;;;8.80;99.90;;;;;;6770910;88;20793;-85
2023/12/30 05:41:57;;;;;;;;;;;8.80;99.90;;;;;;6770945;88;20069;-86
2023/12/30 05:51:58;;;;;;;;;;;8.90;99.90;;;;;;6769580;88;20022;-85
2023/12/30 06:01:58;;;;;;;;;;;9.10;99.90;;;;;;6786628;87;20043;-85
2023/12/30 06:11:59;;;;;;;;;;;8.80;99.90;;;;;;6783896;87;20860;-85
2023/12/30 06:21:59;;;;;;;;;;;8.80;99.90;;;;;;6787321;87;20068;-85
2023/12/30 06:32:00;;;;;;;;;;;8.60;99.90;;;;;;6787157;87;20026;-85
2023/12/30 06:42:00;;;;;;;;;;;8.70;99.90;;;;;;6787588;87;20148;-86
2023/12/30 06:52:01;;;;;;;;;;;8.50;99.90;;;;;;6787313;87;20020;-84
2023/12/30 07:23:44;;;;;;;;;;;8.70;99.90;;;;;;6724938;77;20040;-84
2023/12/30 07:33:45;;;;;;;;;;;8.60;99.90;;;;;;6769236;88;20075;-83
2023/12/30 07:43:45;;;;;;;;;;;8.60;99.90;;;;;;6785384;87;20033;-85
2023/12/30 08:04:10;;;;;;;;;;;8.50;99.90;;;;;;4755468;78;20682;-85
2023/12/30 08:14:10;;;;;;;;;;;8.50;99.90;;;;;;6662676;88;20177;-83
2023/12/30 08:24:14;;;;;;;;;;;8.70;99.90;;;;;;6658083;89;20724;-82
2023/12/30 08:34:15;;;;;;;;;;;8.80;99.90;;;;;;6663368;88;20052;-83
2023/12/30 08:44:15;;;;;;;;;;;8.80;99.90;;;;;;6661406;89;20026;-85
2023/12/30 09:04:21;;;;;;;;;;;9.10;99.90;;;;;;6668115;88;20431;-82
2023/12/30 09:14:23;;;;;;;;;;;9.30;99.90;;;;;;6657573;89;20034;-83
2023/12/30 09:24:24;;;;;;;;;;;9.50;99.90;;;;;;6650290;89;20070;-81
2023/12/30 09:34:24;;;;;;;;;;;9.90;99.90;;;;;;6628843;89;20551;-82
2023/12/30 09:44:25;;;;;;;;;;;10.00;99.90;;;;;;6636232;89;20077;-82
2023/12/30 09:54:27;;;;;;;;;;;10.20;99.90;;;;;;6645738;89;20128;-82
2023/12/30 10:04:28;;;;;;;;;;;10.40;99.90;;;;;;6646220;88;20061;-79
2023/12/30 10:25:30;;;;;;;;;;;10.90;99.90;;;;;;6766633;88;20089;-83
2023/12/30 10:35:31;;;;;;;;;;;11.30;99.90;;;;;;6761673;88;20074;-82
2023/12/30 10:45:31;;;;;;;;;;;12.20;99.90;;;;;;6757320;88;20121;-82
2023/12/30 10:55:36;;;;;;;;;;;12.70;99.90;;;;;;6756753;88;20076;-83
2023/12/30 11:05:56;;;;;;;;;;;12.20;99.90;;;;;;6757868;88;20078;-82
2023/12/30 11:16:10;;;;;;;;;;;12.50;99.90;;;;;;6736409;88;20175;-81
2023/12/30 11:26:12;;;;;;;;;;;13.00;99.90;;;;;;6736241;88;20570;-82
2023/12/30 11:36:12;;;;;;;;;;;13.10;99.90;;;;;;6736616;88;20125;-81
2023/12/30 11:46:13;;;;;;;;;;;13.30;99.90;;;;;;6740731;88;20130;-81
2023/12/30 11:56:14;;;;;;;;;;;12.80;99.90;;;;;;6736673;88;20069;-82
2023/12/30 12:06:15;;;;;;;;;;;13.40;99.90;;;;;;6732734;88;20742;-82
2023/12/30 12:16:15;;;;;;;;;;;13.40;99.90;;;;;;6741205;88;20092;-83
2023/12/30 12:26:16;;;;;;;;;;;12.60;99.90;;;;;;6742640;88;20662;-82
2023/12/30 12:36:17;;;;;;;;;;;12.70;99.90;;;;;;6736822;88;20184;-81
2023/12/30 12:46:18;;;;;;;;;;;13.00;99.90;;;;;;6737765;88;20453;-83
2023/12/30 12:56:18;;;;;;;;;;;13.40;99.90;;;;;;6736965;88;20068;-82
2023/12/30 13:06:22;;;;;;;;;;;13.90;99.90;;;;;;6736879;88;20098;-82
2023/12/30 13:16:23;;;;;;;;;;;14.20;99.90;;;;;;6741665;88;20049;-81
2023/12/30 13:26:24;;;;;;;;;;;13.80;99.90;;;;;;6736247;88;20136;-82
2023/12/30 13:36:25;;;;;;;;;;;13.40;99.90;;;;;;6738816;88;20135;-82
2023/12/30 13:46:39;;;;;;;;;;;13.50;99.90;;;;;;6744868;88;20058;-84
2023/12/30 13:56:42;;;;;;;;;;;13.40;99.90;;;;;;6748517;88;20136;-82
2023/12/30 14:06:43;;;;;;;;;;;12.90;99.90;;;;;;6746012;88;20293;-82
2023/12/30 14:16:44;;;;;;;;;;;12.90;99.90;;;;;;6745859;88;20548;-82
2023/12/30 14:26:45;;;;;;;;;;;13.30;99.90;;;;;;6746562;88;20223;-83
2023/12/30 14:36:45;;;;;;;;;;;13.00;99.90;;;;;;6750315;88;20107;-81
2023/12/30 14:46:46;;;;;;;;;;;12.10;99.90;;;;;;6751997;88;20043;-83
2023/12/30 15:06:49;;;;;;;;;;;11.30;99.90;;;;;;6661309;88;20116;-79
2023/12/30 15:16:50;;;;;;;;;;;11.00;99.90;;;;;;6670523;88;20114;-81
2023/12/30 15:26:52;;;;;;;;;;;10.80;99.90;;;;;;6663911;88;20497;-79
2023/12/30 15:36:52;;;;;;;;;;;10.60;99.90;;;;;;6670302;88;20050;-80
2023/12/30 15:46:53;;;;;;;;;;;10.40;99.90;;;;;;6674516;88;20080;-80
2023/12/30 15:56:54;;;;;;;;;;;10.20;99.90;;;;;;6662971;88;20593;-80
2023/12/30 16:06:54;;;;;;;;;;;10.10;99.90;;;;;;6646226;88;20166;-79
2023/12/30 16:16:55;;;;;;;;;;;10.00;99.90;;;;;;6642183;88;20063;-78
2023/12/30 16:26:56;;;;;;;;;;;9.90;99.90;;;;;;6653515;88;20066;-79
2023/12/30 16:36:56;;;;;;;;;;;9.70;99.90;;;;;;6640378;88;20205;-79
2023/12/30 16:46:57;;;;;;;;;;;9.70;99.90;;;;;;6653683;88;20037;-79
2023/12/30 16:56:58;;;;;;;;;;;9.60;99.90;;;;;;6652118;88;20058;-79
2023/12/30 17:06:58;;;;;;;;;;;9.50;99.90;;;;;;6669160;88;20181;-79
2023/12/30 17:16:58;;;;;;;;;;;9.50;99.90;;;;;;6659801;88;20067;-78
2023/12/30 17:26:59;;;;;;;;;;;9.30;99.90;;;;;;6639415;88;20108;-79
2023/12/30 17:36:59;;;;;;;;;;;9.10;99.90;;;;;;6657499;88;20694;-80
2023/12/30 17:47:00;;;;;;;;;;;9.00;99.90;;;;;;6665929;88;20099;-78
2023/12/30 17:57:02;;;;;;;;;;;9.10;99.90;;;;;;6672213;88;20046;-79
2023/12/30 18:07:03;;;;;;;;;;;9.20;99.90;;;;;;6654479;88;20080;-78
2023/12/30 18:17:03;;;;;;;;;;;9.00;99.90;;;;;;6647807;88;20098;-77
2023/12/30 18:27:04;;;;;;;;;;;9.10;99.90;;;;;;6667716;88;20082;-78
2023/12/30 18:37:07;;;;;;;;;;;9.10;99.90;;;;;;6643645;88;20592;-78
2023/12/30 18:47:07;;;;;;;;;;;9.20;99.90;;;;;;6618775;88;20552;-78
2023/12/30 18:57:08;;;;;;;;;;;9.10;99.90;;;;;;6617262;89;20070;-79
2023/12/30 19:07:08;;;;;;;;;;;9.10;99.90;;;;;;6625711;89;20063;-78
2023/12/30 19:17:09;;;;;;;;;;;9.20;99.90;;;;;;6631090;89;20083;-79
2023/12/30 19:27:09;;;;;;;;;;;8.90;99.90;;;;;;6628821;89;20058;-77
2023/12/30 19:37:09;;;;;;;;;;;8.60;99.90;;;;;;6615618;89;20141;-78
2023/12/30 19:47:10;;;;;;;;;;;8.40;99.90;;;;;;6612927;89;20095;-78
2023/12/30 19:57:11;;;;;;;;;;;8.40;99.90;;;;;;6615509;89;20126;-77
2023/12/30 20:07:12;;;;;;;;;;;8.30;99.90;;;;;;6704710;88;20072;-79
2023/12/30 20:17:16;;;;;;;;;;;8.30;99.90;;;;;;6621894;89;20054;-79
2023/12/30 20:27:16;;;;;;;;;;;8.20;99.90;;;;;;6619550;89;20071;-77
2023/12/30 20:37:17;;;;;;;;;;;8.20;99.90;;;;;;6617279;89;20062;-78
2023/12/30 20:47:19;;;;;;;;;;;8.30;99.90;;;;;;6614719;89;20069;-78
2023/12/30 21:17:48;;;;;;;;;;;8.00;99.90;;;;;;5166104;76;20022;-87
2023/12/30 21:48:06;;;;;;;;;;;8.10;99.90;;;;;;6752954;87;20061;-84
2023/12/30 22:18:18;;;;;;;;;;;8.30;99.90;;;;;;7559939;77;20117;31
2023/12/30 22:59:07;;;;;;;;;;;8.30;99.90;;;;;;6797994;87;20093;-84
2023/12/30 23:09:08;;;;;;;;;;;8.20;99.90;;;;;;6766628;88;20113;-84
2023/12/30 23:39:15;;;;;;;;;;;8.10;99.90;;;;;;6738424;87;20034;-80
2023/12/30 23:49:16;;;;;;;;;;;8.30;99.90;;;;;;6768344;88;20047;-81
2023/12/30 23:59:17;;;;;;;;;;;9.10;99.90;;;;;;6768124;88;20047;-80
